sensor_id;sensor_type;location;lat;lon;timestamp;pressure;altitude;pressure_sealevel;temperature;humidity
4326;BME280;58429;49.826;10.880;2022-09-23T00:00:30;99090;;;7.81;74.72
4326;BME280;58429;49.826;10.880;2022-09-23T00:01:30;99094;;;7.81;74.89
4326;BME280;58429;49.826;10.880;2022-09-23T00:02:30;99095;;;7.8;74.77
4326;BME280;58429;49.826;10.880;2022-09-23T00:03:30;99086;;;7.8;74.89
4326;BME280;58429;49.826;10.880;2022-09-23T00:04:30;99086;;;7.75;75
4326;BME280;58429;49.826;10.880;2022-09-23T00:05:30;99091;;;7.76;74.98
4326;BME280;58429;49.826;10.880;2022-09-23T00:06:30;99092;;;7.73;74.99
4326;BME280;58429;49.826;10.880;2022-09-23T00:07:30;99087;;;7.68;75.23
4326;BME280;58429;49.826;10.880;2022-09-23T00:08:30;99089;;;7.67;75.12
4326;BME280;58429;49.826;10.880;2022-09-23T00:09:30;99090;;;7.62;75.2
4326;BME280;58429;49.826;10.880;2022-09-23T00:10:30;99086;;;7.62;75.3
4326;BME280;58429;49.826;10.880;2022-09-23T00:11:31;99079;;;7.62;75.36
4326;BME280;58429;49.826;10.880;2022-09-23T00:12:30;99088;;;7.59;75.16
4326;BME280;58429;49.826;10.880;2022-09-23T00:13:30;99092;;;7.61;75.12
4326;BME280;58429;49.826;10.880;2022-09-23T00:14:30;99091;;;7.62;75.19
4326;BME280;58429;49.826;10.880;2022-09-23T00:15:30;99086;;;7.59;75.16
4326;BME280;58429;49.826;10.880;2022-09-23T00:16:30;99095;;;7.57;75.25
4326;BME280;58429;49.826;10.880;2022-09-23T00:17:30;99094;;;7.59;75.12
4326;BME280;58429;49.826;10.880;2022-09-23T00:18:30;99094;;;7.61;75.08
4326;BME280;58429;49.826;10.880;2022-09-23T00:19:30;99100;;;7.59;75.16
4326;BME280;58429;49.826;10.880;2022-09-23T00:20:31;99090;;;7.55;75.28
4326;BME280;58429;49.826;10.880;2022-09-23T00:21:30;99092;;;7.57;75.38
4326;BME280;58429;49.826;10.880;2022-09-23T00:22:30;99092;;;7.55;75.46
4326;BME280;58429;49.826;10.880;2022-09-23T00:23:30;99093;;;7.52;75.42
4326;BME280;58429;49.826;10.880;2022-09-23T00:24:30;99098;;;7.53;75.24
4326;BME280;58429;49.826;10.880;2022-09-23T00:25:30;99091;;;7.5;75.29
4326;BME280;58429;49.826;10.880;2022-09-23T00:26:30;99093;;;7.5;75.51
4326;BME280;58429;49.826;10.880;2022-09-23T00:27:30;99089;;;7.49;75.41
4326;BME280;58429;49.826;10.880;2022-09-23T00:28:30;99082;;;7.5;75.21
4326;BME280;58429;49.826;10.880;2022-09-23T00:29:30;99082;;;7.45;75.27
4326;BME280;58429;49.826;10.880;2022-09-23T00:30:30;99084;;;7.44;75.21
4326;BME280;58429;49.826;10.880;2022-09-23T00:31:30;99088;;;7.45;75.19
4326;BME280;58429;49.826;10.880;2022-09-23T00:32:30;99084;;;7.49;75.29
4326;BME280;58429;49.826;10.880;2022-09-23T00:33:30;99087;;;7.45;75.34
4326;BME280;58429;49.826;10.880;2022-09-23T00:34:30;99090;;;7.4;75.66
4326;BME280;58429;49.826;10.880;2022-09-23T00:35:30;99089;;;7.4;75.61
4326;BME280;58429;49.826;10.880;2022-09-23T00:36:30;99084;;;7.37;75.67
4326;BME280;58429;49.826;10.880;2022-09-23T00:37:30;99080;;;7.38;75.65
4326;BME280;58429;49.826;10.880;2022-09-23T00:38:30;99081;;;7.39;75.45
4326;BME280;58429;49.826;10.880;2022-09-23T00:39:30;99082;;;7.4;75.37
4326;BME280;58429;49.826;10.880;2022-09-23T00:40:30;99079;;;7.39;75.41
4326;BME280;58429;49.826;10.880;2022-09-23T00:41:31;99073;;;7.37;75.76
4326;BME280;58429;49.826;10.880;2022-09-23T00:42:30;99071;;;7.35;75.88
4326;BME280;58429;49.826;10.880;2022-09-23T00:43:39;99070;;;7.35;75.89
4326;BME280;58429;49.826;10.880;2022-09-23T00:44:39;99073;;;7.35;75.88
4326;BME280;58429;49.826;10.880;2022-09-23T00:45:30;99070;;;7.35;75.69
4326;BME280;58429;49.826;10.880;2022-09-23T00:46:31;99072;;;7.33;75.61
4326;BME280;58429;49.826;10.880;2022-09-23T00:47:31;99072;;;7.34;75.72
4326;BME280;58429;49.826;10.880;2022-09-23T00:48:30;99069;;;7.32;75.87
4326;BME280;58429;49.826;10.880;2022-09-23T00:49:30;99070;;;7.32;75.71
4326;BME280;58429;49.826;10.880;2022-09-23T00:50:31;99067;;;7.34;75.64
4326;BME280;58429;49.826;10.880;2022-09-23T00:51:31;99068;;;7.35;75.66
4326;BME280;58429;49.826;10.880;2022-09-23T00:52:30;99062;;;7.34;76.01
4326;BME280;58429;49.826;10.880;2022-09-23T00:53:30;99063;;;7.33;75.77
4326;BME280;58429;49.826;10.880;2022-09-23T00:54:30;99068;;;7.35;75.85
4326;BME280;58429;49.826;10.880;2022-09-23T00:55:31;99065;;;7.34;75.83
4326;BME280;58429;49.826;10.880;2022-09-23T00:56:30;99070;;;7.32;75.78
4326;BME280;58429;49.826;10.880;2022-09-23T00:57:30;99064;;;7.32;75.91
4326;BME280;58429;49.826;10.880;2022-09-23T00:58:30;99058;;;7.32;75.89
4326;BME280;58429;49.826;10.880;2022-09-23T00:59:30;99053;;;7.29;76.07
4326;BME280;58429;49.826;10.880;2022-09-23T01:00:30;99061;;;7.25;76.06
4326;BME280;58429;49.826;10.880;2022-09-23T01:01:30;99065;;;7.27;75.97
4326;BME280;58429;49.826;10.880;2022-09-23T01:02:30;99064;;;7.25;76
4326;BME280;58429;49.826;10.880;2022-09-23T01:03:30;99058;;;7.24;75.88
4326;BME280;58429;49.826;10.880;2022-09-23T01:04:30;99063;;;7.24;75.77
4326;BME280;58429;49.826;10.880;2022-09-23T01:05:30;99053;;;7.19;75.94
4326;BME280;58429;49.826;10.880;2022-09-23T01:06:30;99065;;;7.17;76.16
4326;BME280;58429;49.826;10.880;2022-09-23T01:07:30;99058;;;7.16;76.23
4326;BME280;58429;49.826;10.880;2022-09-23T01:08:30;99060;;;7.11;76.26
4326;BME280;58429;49.826;10.880;2022-09-23T01:09:30;99057;;;7.15;76.2
4326;BME280;58429;49.826;10.880;2022-09-23T01:10:32;99054;;;7.15;76.12
4326;BME280;58429;49.826;10.880;2022-09-23T01:11:35;99066;;;7.1;76.2
4326;BME280;58429;49.826;10.880;2022-09-23T01:12:35;99052;;;7.1;76.03
4326;BME280;58429;49.826;10.880;2022-09-23T01:13:31;99058;;;7.09;76
4326;BME280;58429;49.826;10.880;2022-09-23T01:14:32;99065;;;7.1;76.2
4326;BME280;58429;49.826;10.880;2022-09-23T01:15:32;99063;;;7.05;76.4
4326;BME280;58429;49.826;10.880;2022-09-23T01:16:31;99060;;;7.03;76.59
4326;BME280;58429;49.826;10.880;2022-09-23T01:17:32;99060;;;7.04;76.49
4326;BME280;58429;49.826;10.880;2022-09-23T01:18:31;99060;;;7.03;76.26
4326;BME280;58429;49.826;10.880;2022-09-23T01:19:34;99053;;;7.07;76.11
4326;BME280;58429;49.826;10.880;2022-09-23T01:20:38;99063;;;7.03;76.03
4326;BME280;58429;49.826;10.880;2022-09-23T01:21:34;99055;;;7.07;75.92
4326;BME280;58429;49.826;10.880;2022-09-23T01:22:31;99059;;;7.07;76.03
4326;BME280;58429;49.826;10.880;2022-09-23T01:23:36;99056;;;7.04;76.09
4326;BME280;58429;49.826;10.880;2022-09-23T01:24:46;99052;;;6.95;76.52
4326;BME280;58429;49.826;10.880;2022-09-23T01:25:33;99056;;;6.91;76.4
4326;BME280;58429;49.826;10.880;2022-09-23T01:26:39;99049;;;6.91;76.31
4326;BME280;58429;49.826;10.880;2022-09-23T01:27:37;99050;;;6.9;76.3
4326;BME280;58429;49.826;10.880;2022-09-23T01:28:33;99050;;;6.89;76.15
4326;BME280;58429;49.826;10.880;2022-09-23T01:29:37;99047;;;6.94;76.05
4326;BME280;58429;49.826;10.880;2022-09-23T01:30:37;99050;;;6.91;75.96
4326;BME280;58429;49.826;10.880;2022-09-23T01:31:30;99049;;;6.92;75.89
4326;BME280;58429;49.826;10.880;2022-09-23T01:32:34;99053;;;6.86;76.01
4326;BME280;58429;49.826;10.880;2022-09-23T01:33:31;99048;;;6.83;75.95
4326;BME280;58429;49.826;10.880;2022-09-23T01:34:31;99046;;;6.86;76.07
4326;BME280;58429;49.826;10.880;2022-09-23T01:35:35;99053;;;6.87;76.09
4326;BME280;58429;49.826;10.880;2022-09-23T01:36:32;99047;;;6.84;76.02
4326;BME280;58429;49.826;10.880;2022-09-23T01:37:31;99047;;;6.81;76.24
4326;BME280;58429;49.826;10.880;2022-09-23T01:38:33;99052;;;6.83;76.07
4326;BME280;58429;49.826;10.880;2022-09-23T01:39:32;99049;;;6.81;76.18
4326;BME280;58429;49.826;10.880;2022-09-23T01:40:32;99043;;;6.82;76.1
4326;BME280;58429;49.826;10.880;2022-09-23T01:41:36;99039;;;6.84;76.03
4326;BME280;58429;49.826;10.880;2022-09-23T01:42:32;99042;;;6.8;75.96
4326;BME280;58429;49.826;10.880;2022-09-23T01:43:33;99046;;;6.77;75.97
4326;BME280;58429;49.826;10.880;2022-09-23T01:44:31;99045;;;6.77;76.05
4326;BME280;58429;49.826;10.880;2022-09-23T01:45:31;99041;;;6.79;76.02
4326;BME280;58429;49.826;10.880;2022-09-23T01:46:31;99040;;;6.8;76.01
4326;BME280;58429;49.826;10.880;2022-09-23T01:47:31;99034;;;6.79;75.95
4326;BME280;58429;49.826;10.880;2022-09-23T01:48:31;99042;;;6.77;76.03
4326;BME280;58429;49.826;10.880;2022-09-23T01:49:31;99036;;;6.74;75.9
4326;BME280;58429;49.826;10.880;2022-09-23T01:50:31;99032;;;6.75;75.9
4326;BME280;58429;49.826;10.880;2022-09-23T01:51:31;99034;;;6.71;75.9
4326;BME280;58429;49.826;10.880;2022-09-23T01:52:30;99030;;;6.75;75.83
4326;BME280;58429;49.826;10.880;2022-09-23T01:53:32;99031;;;6.68;75.79
4326;BME280;58429;49.826;10.880;2022-09-23T01:54:31;99033;;;6.75;75.73
4326;BME280;58429;49.826;10.880;2022-09-23T01:55:30;99032;;;6.74;75.83
4326;BME280;58429;49.826;10.880;2022-09-23T01:56:31;99030;;;6.71;75.87
4326;BME280;58429;49.826;10.880;2022-09-23T01:57:31;99035;;;6.69;75.74
4326;BME280;58429;49.826;10.880;2022-09-23T01:58:31;99028;;;6.72;75.77
4326;BME280;58429;49.826;10.880;2022-09-23T01:59:31;99030;;;6.68;75.82
4326;BME280;58429;49.826;10.880;2022-09-23T02:00:30;99032;;;6.69;75.76
4326;BME280;58429;49.826;10.880;2022-09-23T02:01:31;99032;;;6.69;75.92
4326;BME280;58429;49.826;10.880;2022-09-23T02:02:30;99035;;;6.65;76.15
4326;BME280;58429;49.826;10.880;2022-09-23T02:03:31;99029;;;6.64;76.11
4326;BME280;58429;49.826;10.880;2022-09-23T02:04:31;99037;;;6.63;76.17
4326;BME280;58429;49.826;10.880;2022-09-23T02:05:31;99032;;;6.6;76.37
4326;BME280;58429;49.826;10.880;2022-09-23T02:06:31;99032;;;6.62;76.38
4326;BME280;58429;49.826;10.880;2022-09-23T02:07:31;99037;;;6.61;76.5
4326;BME280;58429;49.826;10.880;2022-09-23T02:08:31;99033;;;6.61;76.7
4326;BME280;58429;49.826;10.880;2022-09-23T02:09:31;99031;;;6.6;76.93
4326;BME280;58429;49.826;10.880;2022-09-23T02:10:31;99035;;;6.58;76.68
4326;BME280;58429;49.826;10.880;2022-09-23T02:11:30;99031;;;6.57;76.63
4326;BME280;58429;49.826;10.880;2022-09-23T02:12:30;99029;;;6.58;76.53
4326;BME280;58429;49.826;10.880;2022-09-23T02:13:31;99036;;;6.56;76.46
4326;BME280;58429;49.826;10.880;2022-09-23T02:14:31;99038;;;6.6;76.63
4326;BME280;58429;49.826;10.880;2022-09-23T02:15:31;99038;;;6.58;76.48
4326;BME280;58429;49.826;10.880;2022-09-23T02:16:30;99033;;;6.52;76.59
4326;BME280;58429;49.826;10.880;2022-09-23T02:17:31;99038;;;6.49;76.71
4326;BME280;58429;49.826;10.880;2022-09-23T02:18:31;99035;;;6.53;76.66
4326;BME280;58429;49.826;10.880;2022-09-23T02:19:31;99036;;;6.53;76.58
4326;BME280;58429;49.826;10.880;2022-09-23T02:20:31;99042;;;6.49;76.56
4326;BME280;58429;49.826;10.880;2022-09-23T02:21:31;99039;;;6.5;76.44
4326;BME280;58429;49.826;10.880;2022-09-23T02:22:31;99032;;;6.52;76.38
4326;BME280;58429;49.826;10.880;2022-09-23T02:23:31;99036;;;6.49;76.32
4326;BME280;58429;49.826;10.880;2022-09-23T02:24:30;99032;;;6.46;76.26
4326;BME280;58429;49.826;10.880;2022-09-23T02:25:30;99039;;;6.45;76.4
4326;BME280;58429;49.826;10.880;2022-09-23T02:26:31;99035;;;6.41;76.58
4326;BME280;58429;49.826;10.880;2022-09-23T02:27:31;99037;;;6.4;76.64
4326;BME280;58429;49.826;10.880;2022-09-23T02:28:30;99031;;;6.4;76.71
4326;BME280;58429;49.826;10.880;2022-09-23T02:29:31;99038;;;6.4;76.55
4326;BME280;58429;49.826;10.880;2022-09-23T02:30:31;99036;;;6.4;76.72
4326;BME280;58429;49.826;10.880;2022-09-23T02:31:31;99032;;;6.38;76.68
4326;BME280;58429;49.826;10.880;2022-09-23T02:32:30;99030;;;6.36;76.71
4326;BME280;58429;49.826;10.880;2022-09-23T02:33:32;99028;;;6.37;76.79
4326;BME280;58429;49.826;10.880;2022-09-23T02:34:33;99030;;;6.34;76.71
4326;BME280;58429;49.826;10.880;2022-09-23T02:35:31;99032;;;6.34;76.58
4326;BME280;58429;49.826;10.880;2022-09-23T02:36:31;99038;;;6.34;76.68
4326;BME280;58429;49.826;10.880;2022-09-23T02:37:33;99033;;;6.35;76.74
4326;BME280;58429;49.826;10.880;2022-09-23T02:38:31;99033;;;6.34;76.84
4326;BME280;58429;49.826;10.880;2022-09-23T02:39:38;99030;;;6.34;76.73
4326;BME280;58429;49.826;10.880;2022-09-23T02:40:30;99035;;;6.32;76.65
4326;BME280;58429;49.826;10.880;2022-09-23T02:41:31;99035;;;6.31;76.56
4326;BME280;58429;49.826;10.880;2022-09-23T02:42:31;99029;;;6.31;76.6
4326;BME280;58429;49.826;10.880;2022-09-23T02:43:30;99031;;;6.29;76.8
4326;BME280;58429;49.826;10.880;2022-09-23T02:44:30;99034;;;6.22;77.04
4326;BME280;58429;49.826;10.880;2022-09-23T02:45:30;99032;;;6.22;77.09
4326;BME280;58429;49.826;10.880;2022-09-23T02:46:30;99027;;;6.22;76.98
4326;BME280;58429;49.826;10.880;2022-09-23T02:47:30;99036;;;6.2;77.09
4326;BME280;58429;49.826;10.880;2022-09-23T02:48:30;99027;;;6.19;76.95
4326;BME280;58429;49.826;10.880;2022-09-23T02:49:30;99031;;;6.14;77.04
4326;BME280;58429;49.826;10.880;2022-09-23T02:50:30;99032;;;6.15;77.06
4326;BME280;58429;49.826;10.880;2022-09-23T02:51:30;99028;;;6.08;77.23
4326;BME280;58429;49.826;10.880;2022-09-23T02:52:30;99032;;;6.06;77.24
4326;BME280;58429;49.826;10.880;2022-09-23T02:53:30;99032;;;6.02;77.17
4326;BME280;58429;49.826;10.880;2022-09-23T02:54:30;99033;;;6.08;77.19
4326;BME280;58429;49.826;10.880;2022-09-23T02:55:30;99032;;;6;77.4
4326;BME280;58429;49.826;10.880;2022-09-23T02:56:30;99033;;;5.99;77.41
4326;BME280;58429;49.826;10.880;2022-09-23T02:57:30;99037;;;6.02;77.54
4326;BME280;58429;49.826;10.880;2022-09-23T02:58:30;99035;;;5.98;77.49
4326;BME280;58429;49.826;10.880;2022-09-23T02:59:30;99026;;;5.95;77.41
4326;BME280;58429;49.826;10.880;2022-09-23T03:00:34;99028;;;5.98;77.43
4326;BME280;58429;49.826;10.880;2022-09-23T03:01:33;99028;;;5.92;77.23
4326;BME280;58429;49.826;10.880;2022-09-23T03:02:36;99030;;;5.86;77.86
4326;BME280;58429;49.826;10.880;2022-09-23T03:03:35;99026;;;5.82;77.94
4326;BME280;58429;49.826;10.880;2022-09-23T03:04:33;99028;;;5.79;78.02
4326;BME280;58429;49.826;10.880;2022-09-23T03:05:30;99027;;;5.81;77.97
4326;BME280;58429;49.826;10.880;2022-09-23T03:06:31;99027;;;5.78;77.86
4326;BME280;58429;49.826;10.880;2022-09-23T03:07:32;99024;;;5.78;77.99
4326;BME280;58429;49.826;10.880;2022-09-23T03:08:34;99021;;;5.78;77.91
4326;BME280;58429;49.826;10.880;2022-09-23T03:09:31;99025;;;5.75;77.82
4326;BME280;58429;49.826;10.880;2022-09-23T03:10:32;99026;;;5.74;77.94
4326;BME280;58429;49.826;10.880;2022-09-23T03:11:30;99025;;;5.76;77.75
4326;BME280;58429;49.826;10.880;2022-09-23T03:12:31;99027;;;5.74;77.9
4326;BME280;58429;49.826;10.880;2022-09-23T03:13:31;99026;;;5.69;77.92
4326;BME280;58429;49.826;10.880;2022-09-23T03:14:31;99018;;;5.67;78.09
4326;BME280;58429;49.826;10.880;2022-09-23T03:15:32;99021;;;5.68;78.08
4326;BME280;58429;49.826;10.880;2022-09-23T03:16:31;99017;;;5.69;77.84
4326;BME280;58429;49.826;10.880;2022-09-23T03:17:31;99016;;;5.7;77.73
4326;BME280;58429;49.826;10.880;2022-09-23T03:18:30;99015;;;5.7;77.6
4326;BME280;58429;49.826;10.880;2022-09-23T03:19:30;99015;;;5.71;77.61
4326;BME280;58429;49.826;10.880;2022-09-23T03:20:31;99015;;;5.69;77.7
4326;BME280;58429;49.826;10.880;2022-09-23T03:21:31;99013;;;5.69;77.78
4326;BME280;58429;49.826;10.880;2022-09-23T03:22:31;99011;;;5.64;77.71
4326;BME280;58429;49.826;10.880;2022-09-23T03:23:31;99008;;;5.67;77.62
4326;BME280;58429;49.826;10.880;2022-09-23T03:24:31;99007;;;5.64;77.65
4326;BME280;58429;49.826;10.880;2022-09-23T03:25:30;99010;;;5.65;77.62
4326;BME280;58429;49.826;10.880;2022-09-23T03:26:30;99009;;;5.66;77.56
4326;BME280;58429;49.826;10.880;2022-09-23T03:27:30;99012;;;5.66;77.52
4326;BME280;58429;49.826;10.880;2022-09-23T03:28:30;99007;;;5.67;77.49
4326;BME280;58429;49.826;10.880;2022-09-23T03:29:30;99008;;;5.66;77.41
4326;BME280;58429;49.826;10.880;2022-09-23T03:30:30;99010;;;5.69;77.41
4326;BME280;58429;49.826;10.880;2022-09-23T03:31:30;99005;;;5.65;77.21
4326;BME280;58429;49.826;10.880;2022-09-23T03:32:30;99006;;;5.64;77.13
4326;BME280;58429;49.826;10.880;2022-09-23T03:33:30;99005;;;5.67;77.19
4326;BME280;58429;49.826;10.880;2022-09-23T03:34:30;99009;;;5.64;77.22
4326;BME280;58429;49.826;10.880;2022-09-23T03:35:31;98998;;;5.66;77.21
4326;BME280;58429;49.826;10.880;2022-09-23T03:36:31;98999;;;5.69;77.22
4326;BME280;58429;49.826;10.880;2022-09-23T03:37:31;99002;;;5.66;77.22
4326;BME280;58429;49.826;10.880;2022-09-23T03:38:31;98998;;;5.63;77.45
4326;BME280;58429;49.826;10.880;2022-09-23T03:39:32;98998;;;5.6;77.56
4326;BME280;58429;49.826;10.880;2022-09-23T03:40:30;99000;;;5.66;77.49
4326;BME280;58429;49.826;10.880;2022-09-23T03:41:30;98991;;;5.63;77.38
4326;BME280;58429;49.826;10.880;2022-09-23T03:42:30;98997;;;5.66;77.29
4326;BME280;58429;49.826;10.880;2022-09-23T03:43:30;98991;;;5.67;77.31
4326;BME280;58429;49.826;10.880;2022-09-23T03:44:32;98994;;;5.64;77.2
4326;BME280;58429;49.826;10.880;2022-09-23T03:45:30;98987;;;5.67;77.1
4326;BME280;58429;49.826;10.880;2022-09-23T03:46:30;98987;;;5.64;76.96
4326;BME280;58429;49.826;10.880;2022-09-23T03:47:30;98984;;;5.62;76.97
4326;BME280;58429;49.826;10.880;2022-09-23T03:48:30;98995;;;5.61;76.86
4326;BME280;58429;49.826;10.880;2022-09-23T03:49:31;98991;;;5.58;77.2
4326;BME280;58429;49.826;10.880;2022-09-23T03:50:30;98990;;;5.59;77.52
4326;BME280;58429;49.826;10.880;2022-09-23T03:51:30;98989;;;5.58;77.46
4326;BME280;58429;49.826;10.880;2022-09-23T03:52:30;98983;;;5.59;77.42
4326;BME280;58429;49.826;10.880;2022-09-23T03:53:30;98987;;;5.57;77.33
4326;BME280;58429;49.826;10.880;2022-09-23T03:54:30;98981;;;5.55;77.33
4326;BME280;58429;49.826;10.880;2022-09-23T03:55:30;98980;;;5.59;77.04
4326;BME280;58429;49.826;10.880;2022-09-23T03:56:30;98989;;;5.58;76.82
4326;BME280;58429;49.826;10.880;2022-09-23T03:57:30;98981;;;5.54;76.71
4326;BME280;58429;49.826;10.880;2022-09-23T03:58:30;98982;;;5.55;76.6
4326;BME280;58429;49.826;10.880;2022-09-23T03:59:30;98984;;;5.51;76.71
4326;BME280;58429;49.826;10.880;2022-09-23T04:00:30;98983;;;5.49;76.71
4326;BME280;58429;49.826;10.880;2022-09-23T04:01:30;98979;;;5.48;76.67
4326;BME280;58429;49.826;10.880;2022-09-23T04:02:30;98984;;;5.47;76.64
4326;BME280;58429;49.826;10.880;2022-09-23T04:03:30;98984;;;5.46;76.69
4326;BME280;58429;49.826;10.880;2022-09-23T04:04:30;98981;;;5.46;76.72
4326;BME280;58429;49.826;10.880;2022-09-23T04:05:30;98984;;;5.45;76.66
4326;BME280;58429;49.826;10.880;2022-09-23T04:06:30;98983;;;5.43;76.83
4326;BME280;58429;49.826;10.880;2022-09-23T04:07:30;98979;;;5.41;76.79
4326;BME280;58429;49.826;10.880;2022-09-23T04:08:30;98985;;;5.44;76.76
4326;BME280;58429;49.826;10.880;2022-09-23T04:09:30;98976;;;5.4;76.78
4326;BME280;58429;49.826;10.880;2022-09-23T04:10:30;98982;;;5.41;76.84
4326;BME280;58429;49.826;10.880;2022-09-23T04:11:30;98981;;;5.39;76.78
4326;BME280;58429;49.826;10.880;2022-09-23T04:12:30;98980;;;5.4;76.76
4326;BME280;58429;49.826;10.880;2022-09-23T04:13:30;98991;;;5.42;76.73
4326;BME280;58429;49.826;10.880;2022-09-23T04:14:30;98976;;;5.38;76.82
4326;BME280;58429;49.826;10.880;2022-09-23T04:15:30;98985;;;5.4;76.91
4326;BME280;58429;49.826;10.880;2022-09-23T04:16:30;98985;;;5.39;76.98
4326;BME280;58429;49.826;10.880;2022-09-23T04:17:30;98982;;;5.37;77.24
4326;BME280;58429;49.826;10.880;2022-09-23T04:18:30;98984;;;5.39;77.33
4326;BME280;58429;49.826;10.880;2022-09-23T04:19:30;98981;;;5.36;77.47
4326;BME280;58429;49.826;10.880;2022-09-23T04:20:30;98977;;;5.38;77.4
4326;BME280;58429;49.826;10.880;2022-09-23T04:21:30;98980;;;5.35;77.54
4326;BME280;58429;49.826;10.880;2022-09-23T04:22:31;98978;;;5.36;77.59
4326;BME280;58429;49.826;10.880;2022-09-23T04:23:30;98977;;;5.33;77.52
4326;BME280;58429;49.826;10.880;2022-09-23T04:24:30;98976;;;5.36;77.46
4326;BME280;58429;49.826;10.880;2022-09-23T04:25:30;98977;;;5.35;77.6
4326;BME280;58429;49.826;10.880;2022-09-23T04:26:30;98969;;;5.35;77.55
4326;BME280;58429;49.826;10.880;2022-09-23T04:27:30;98969;;;5.33;77.63
4326;BME280;58429;49.826;10.880;2022-09-23T04:28:30;98974;;;5.32;77.72
4326;BME280;58429;49.826;10.880;2022-09-23T04:29:30;98982;;;5.29;77.67
4326;BME280;58429;49.826;10.880;2022-09-23T04:30:30;98971;;;5.28;77.55
4326;BME280;58429;49.826;10.880;2022-09-23T04:31:30;98976;;;5.31;77.48
4326;BME280;58429;49.826;10.880;2022-09-23T04:32:30;98976;;;5.31;77.41
4326;BME280;58429;49.826;10.880;2022-09-23T04:33:30;98975;;;5.31;77.49
4326;BME280;58429;49.826;10.880;2022-09-23T04:34:30;98973;;;5.3;77.45
4326;BME280;58429;49.826;10.880;2022-09-23T04:35:30;98972;;;5.33;77.47
4326;BME280;58429;49.826;10.880;2022-09-23T04:36:30;98974;;;5.28;77.55
4326;BME280;58429;49.826;10.880;2022-09-23T04:37:30;98980;;;5.3;77.68
4326;BME280;58429;49.826;10.880;2022-09-23T04:38:30;98974;;;5.29;77.58
4326;BME280;58429;49.826;10.880;2022-09-23T04:39:30;98975;;;5.26;77.8
4326;BME280;58429;49.826;10.880;2022-09-23T04:40:30;98971;;;5.28;77.67
4326;BME280;58429;49.826;10.880;2022-09-23T04:41:30;98974;;;5.25;77.67
4326;BME280;58429;49.826;10.880;2022-09-23T04:42:30;98968;;;5.24;77.73
4326;BME280;58429;49.826;10.880;2022-09-23T04:43:30;98975;;;5.26;77.74
4326;BME280;58429;49.826;10.880;2022-09-23T04:44:30;98978;;;5.26;77.93
4326;BME280;58429;49.826;10.880;2022-09-23T04:45:30;98971;;;5.18;77.89
4326;BME280;58429;49.826;10.880;2022-09-23T04:46:30;98972;;;5.25;77.85
4326;BME280;58429;49.826;10.880;2022-09-23T04:47:30;98969;;;5.22;77.97
4326;BME280;58429;49.826;10.880;2022-09-23T04:48:30;98971;;;5.19;77.98
4326;BME280;58429;49.826;10.880;2022-09-23T04:49:30;98975;;;5.21;77.99
4326;BME280;58429;49.826;10.880;2022-09-23T04:50:31;98974;;;5.18;78.03
4326;BME280;58429;49.826;10.880;2022-09-23T04:51:30;98968;;;5.17;78.02
4326;BME280;58429;49.826;10.880;2022-09-23T04:52:30;98971;;;5.19;77.95
4326;BME280;58429;49.826;10.880;2022-09-23T04:53:30;98972;;;5.19;77.82
4326;BME280;58429;49.826;10.880;2022-09-23T04:54:30;98969;;;5.19;77.95
4326;BME280;58429;49.826;10.880;2022-09-23T04:55:30;98966;;;5.18;77.88
4326;BME280;58429;49.826;10.880;2022-09-23T04:56:30;98974;;;5.15;77.78
4326;BME280;58429;49.826;10.880;2022-09-23T04:57:30;98973;;;5.15;77.72
4326;BME280;58429;49.826;10.880;2022-09-23T04:58:30;98970;;;5.15;77.67
4326;BME280;58429;49.826;10.880;2022-09-23T04:59:30;98966;;;5.13;77.58
4326;BME280;58429;49.826;10.880;2022-09-23T05:00:30;98966;;;5.16;77.46
4326;BME280;58429;49.826;10.880;2022-09-23T05:01:31;98968;;;5.13;77.48
4326;BME280;58429;49.826;10.880;2022-09-23T05:02:30;98964;;;5.12;77.49
4326;BME280;58429;49.826;10.880;2022-09-23T05:03:30;98964;;;5.14;77.67
4326;BME280;58429;49.826;10.880;2022-09-23T05:04:30;98965;;;5.08;77.68
4326;BME280;58429;49.826;10.880;2022-09-23T05:05:30;98975;;;5.09;77.62
4326;BME280;58429;49.826;10.880;2022-09-23T05:06:30;98972;;;5.09;77.78
4326;BME280;58429;49.826;10.880;2022-09-23T05:07:30;98974;;;5.09;77.84
4326;BME280;58429;49.826;10.880;2022-09-23T05:08:30;98970;;;5.11;77.98
4326;BME280;58429;49.826;10.880;2022-09-23T05:09:30;98971;;;5.08;78.07
4326;BME280;58429;49.826;10.880;2022-09-23T05:10:30;98978;;;5.09;78.16
4326;BME280;58429;49.826;10.880;2022-09-23T05:11:30;98983;;;5.06;78.09
4326;BME280;58429;49.826;10.880;2022-09-23T05:12:30;98986;;;5.08;78.01
4326;BME280;58429;49.826;10.880;2022-09-23T05:13:30;98981;;;5.06;78.03
4326;BME280;58429;49.826;10.880;2022-09-23T05:14:30;98984;;;5.06;78.15
4326;BME280;58429;49.826;10.880;2022-09-23T05:15:30;98980;;;5.04;78.31
4326;BME280;58429;49.826;10.880;2022-09-23T05:16:30;98982;;;5.09;78.28
4326;BME280;58429;49.826;10.880;2022-09-23T05:17:30;98978;;;5.08;78.24
4326;BME280;58429;49.826;10.880;2022-09-23T05:18:30;98981;;;5.08;78.17
4326;BME280;58429;49.826;10.880;2022-09-23T05:19:30;98983;;;5.04;78.4
4326;BME280;58429;49.826;10.880;2022-09-23T05:20:30;98983;;;5.05;78.24
4326;BME280;58429;49.826;10.880;2022-09-23T05:21:30;98979;;;5.04;78.45
4326;BME280;58429;49.826;10.880;2022-09-23T05:22:30;98979;;;5.04;78.35
4326;BME280;58429;49.826;10.880;2022-09-23T05:23:30;98985;;;5.05;78.28
4326;BME280;58429;49.826;10.880;2022-09-23T05:24:30;98986;;;5.06;78.22
4326;BME280;58429;49.826;10.880;2022-09-23T05:25:30;98982;;;5.05;78.33
4326;BME280;58429;49.826;10.880;2022-09-23T05:26:30;98979;;;5.05;78.38
4326;BME280;58429;49.826;10.880;2022-09-23T05:27:30;98991;;;5.05;78.29
4326;BME280;58429;49.826;10.880;2022-09-23T05:28:31;98991;;;5.04;78.32
4326;BME280;58429;49.826;10.880;2022-09-23T05:29:30;98986;;;5.05;78.27
4326;BME280;58429;49.826;10.880;2022-09-23T05:30:30;98985;;;5.05;78.42
4326;BME280;58429;49.826;10.880;2022-09-23T05:31:30;98992;;;5.03;78.46
4326;BME280;58429;49.826;10.880;2022-09-23T05:32:30;98988;;;5.04;78.6
4326;BME280;58429;49.826;10.880;2022-09-23T05:33:30;98986;;;5.01;78.56
4326;BME280;58429;49.826;10.880;2022-09-23T05:34:30;98986;;;5.04;78.59
4326;BME280;58429;49.826;10.880;2022-09-23T05:35:30;98988;;;5;78.73
4326;BME280;58429;49.826;10.880;2022-09-23T05:36:31;98994;;;5.01;78.68